SBOSBO AMM / OJAI
Speedbird OnlineSpeedbird Online AMM / OJAI

Queen Alia International Airport
10:25 24°C

Location Amman, Jordan
Latitude: 31.7226009369
Longitude: 35.9931983948
Web Wikipedia
Altitude 730 Meter / 2395 Feet
Distance 3,647 KM / 2,266 Miles
from London.
Time Zone UTC +3 hours (Asia/Amman)
Codes IATA: AMM
ICAO: OJAI
Currency £1 equals JOD 0.80
Runways
RunwayLength (m)Surface
08L3660Asphalt
08R3660Concrete
26L3660Concrete
26R3660Asphalt
Radio
TypeDescriptionFrequency
APPAMMAN APP128.9
ATISATIS127.6
GNDGND121.9
TWRTWR119.8
Live ATC
METAR OJAI 060700Z 00000KT 5000 HZ NSC 24/13 Q1019 NOSIG
TAF TAF OJAI 060600Z 0606/0712 29010KT 5000 HZ FEW035
Weather As Of 06 Oct 2022 10:25
Description Haze
Wind 0 km/h from North (0°)
Cloud Cover 0%
Precipitation Rain: none, Snow: none
Sunrise 06:32
Sunset 18:15
Lounges Royal Jordanian Crown Lounge, Main Terminal
Rotations During the last 90 days there were
83 flights from LHR
83 flights to LHR


© 2017-2022 Speedbird Online